Terminal Aerodrome Forecast
Issued by NWS

Home | Current Version | Previous Version | Text Only | Print | Product List | Glossary Off
Versions: 1 2 3 4 5 6 7 8 9 10 11 12 13 14 15 16 17 18 19 20 21 22 23 24 25

000
FTUS43 KICT 201741
TAFHUT
TAF
KHUT 201741Z 2018/2118 19013KT P6SM BKN200
     FM210700 18008KT 4SM BR OVC025
     FM210900 18008KT 3SM BR OVC008
      TEMPO 2109/2113 1SM -DZ BR OVC003
     FM211300 17008KT 3SM -DZ BR OVC008=

USA.gov is the U.S. government's official web portal to all federal, state and local government web resources and services.